sensor_id;sensor_type;location;lat;lon;timestamp;P1;durP1;ratioP1;P2;durP2;ratioP2
8399;SDS011;4237;47.030;15.396;2022-08-19T00:00:38;7.10;;;2.60;;
8399;SDS011;4237;47.030;15.396;2022-08-19T00:03:07;12.13;;;2.93;;
8399;SDS011;4237;47.030;15.396;2022-08-19T00:05:35;12.10;;;3.17;;
8399;SDS011;4237;47.030;15.396;2022-08-19T00:08:04;10.70;;;3.03;;
8399;SDS011;4237;47.030;15.396;2022-08-19T00:10:32;8.15;;;3.00;;
8399;SDS011;4237;47.030;15.396;2022-08-19T00:27:46;7.73;;;2.73;;
8399;SDS011;4237;47.030;15.396;2022-08-19T00:30:14;8.40;;;3.07;;
8399;SDS011;4237;47.030;15.396;2022-08-19T00:32:43;11.60;;;2.50;;
8399;SDS011;4237;47.030;15.396;2022-08-19T00:35:11;6.23;;;2.40;;
8399;SDS011;4237;47.030;15.396;2022-08-19T00:37:39;11.33;;;2.43;;
8399;SDS011;4237;47.030;15.396;2022-08-19T00:40:10;8.97;;;2.80;;
8399;SDS011;4237;47.030;15.396;2022-08-19T00:42:39;9.77;;;2.97;;
8399;SDS011;4237;47.030;15.396;2022-08-19T00:45:09;7.07;;;2.90;;
8399;SDS011;4237;47.030;15.396;2022-08-19T00:47:37;7.30;;;2.97;;
8399;SDS011;4237;47.030;15.396;2022-08-19T00:50:06;9.37;;;2.97;;
8399;SDS011;4237;47.030;15.396;2022-08-19T00:52:36;9.73;;;3.40;;
8399;SDS011;4237;47.030;15.396;2022-08-19T00:55:05;8.20;;;2.97;;
8399;SDS011;4237;47.030;15.396;2022-08-19T00:57:38;8.73;;;3.60;;
8399;SDS011;4237;47.030;15.396;2022-08-19T01:00:08;11.57;;;3.30;;
8399;SDS011;4237;47.030;15.396;2022-08-19T01:02:38;10.53;;;3.60;;
8399;SDS011;4237;47.030;15.396;2022-08-19T01:05:13;11.27;;;3.00;;
8399;SDS011;4237;47.030;15.396;2022-08-19T01:07:37;6.33;;;3.00;;
8399;SDS011;4237;47.030;15.396;2022-08-19T01:10:08;5.97;;;2.83;;
8399;SDS011;4237;47.030;15.396;2022-08-19T01:12:37;8.50;;;2.47;;
8399;SDS011;4237;47.030;15.396;2022-08-19T01:15:07;9.80;;;3.13;;
8399;SDS011;4237;47.030;15.396;2022-08-19T01:17:36;13.50;;;3.40;;
8399;SDS011;4237;47.030;15.396;2022-08-19T01:20:07;9.37;;;3.07;;
8399;SDS011;4237;47.030;15.396;2022-08-19T01:22:42;11.40;;;3.10;;
8399;SDS011;4237;47.030;15.396;2022-08-19T01:25:06;11.87;;;2.90;;
8399;SDS011;4237;47.030;15.396;2022-08-19T01:27:38;8.10;;;3.33;;
8399;SDS011;4237;47.030;15.396;2022-08-19T01:30:07;10.07;;;2.87;;
8399;SDS011;4237;47.030;15.396;2022-08-19T01:32:36;9.27;;;2.73;;
8399;SDS011;4237;47.030;15.396;2022-08-19T01:35:04;7.20;;;2.90;;
8399;SDS011;4237;47.030;15.396;2022-08-19T01:37:43;8.00;;;3.03;;
8399;SDS011;4237;47.030;15.396;2022-08-19T01:40:12;9.73;;;3.07;;
8399;SDS011;4237;47.030;15.396;2022-08-19T01:42:41;10.73;;;3.10;;
8399;SDS011;4237;47.030;15.396;2022-08-19T01:45:09;7.60;;;2.70;;
8399;SDS011;4237;47.030;15.396;2022-08-19T01:47:37;8.20;;;3.17;;
8399;SDS011;4237;47.030;15.396;2022-08-19T01:50:06;8.80;;;3.00;;
8399;SDS011;4237;47.030;15.396;2022-08-19T01:52:36;7.67;;;2.97;;
8399;SDS011;4237;47.030;15.396;2022-08-19T01:55:06;9.30;;;3.20;;
8399;SDS011;4237;47.030;15.396;2022-08-19T01:57:34;7.03;;;2.80;;
8399;SDS011;4237;47.030;15.396;2022-08-19T02:00:04;7.87;;;3.40;;
8399;SDS011;4237;47.030;15.396;2022-08-19T02:02:32;10.40;;;3.43;;
8399;SDS011;4237;47.030;15.396;2022-08-19T02:05:01;8.40;;;3.60;;
8399;SDS011;4237;47.030;15.396;2022-08-19T02:07:29;12.07;;;3.93;;
8399;SDS011;4237;47.030;15.396;2022-08-19T02:09:57;10.73;;;3.97;;
8399;SDS011;4237;47.030;15.396;2022-08-19T02:12:25;9.33;;;3.87;;
8399;SDS011;4237;47.030;15.396;2022-08-19T02:17:41;4.97;;;3.40;;
8399;SDS011;4237;47.030;15.396;2022-08-19T02:20:10;13.47;;;3.60;;
8399;SDS011;4237;47.030;15.396;2022-08-19T02:22:40;7.47;;;3.60;;
8399;SDS011;4237;47.030;15.396;2022-08-19T02:25:10;7.30;;;3.40;;
8399;SDS011;4237;47.030;15.396;2022-08-19T02:27:39;10.57;;;3.57;;
8399;SDS011;4237;47.030;15.396;2022-08-19T02:30:08;10.70;;;3.90;;
8399;SDS011;4237;47.030;15.396;2022-08-19T02:32:37;13.20;;;3.53;;
8399;SDS011;4237;47.030;15.396;2022-08-19T02:35:06;9.03;;;3.97;;
8399;SDS011;4237;47.030;15.396;2022-08-19T02:37:34;11.80;;;3.70;;
8399;SDS011;4237;47.030;15.396;2022-08-19T02:40:21;6.40;;;2.73;;
8399;SDS011;4237;47.030;15.396;2022-08-19T02:42:49;13.07;;;3.70;;
8399;SDS011;4237;47.030;15.396;2022-08-19T02:45:17;6.07;;;3.10;;
8399;SDS011;4237;47.030;15.396;2022-08-19T02:47:46;10.07;;;3.10;;
8399;SDS011;4237;47.030;15.396;2022-08-19T02:50:14;8.33;;;3.20;;
8399;SDS011;4237;47.030;15.396;2022-08-19T02:52:42;10.57;;;3.60;;
8399;SDS011;4237;47.030;15.396;2022-08-19T02:55:11;9.23;;;3.13;;
8399;SDS011;4237;47.030;15.396;2022-08-19T02:57:39;9.10;;;3.00;;
8399;SDS011;4237;47.030;15.396;2022-08-19T03:00:09;11.97;;;3.80;;
8399;SDS011;4237;47.030;15.396;2022-08-19T03:02:39;9.57;;;3.57;;
8399;SDS011;4237;47.030;15.396;2022-08-19T03:05:08;8.17;;;3.50;;
8399;SDS011;4237;47.030;15.396;2022-08-19T03:07:37;8.60;;;3.57;;
8399;SDS011;4237;47.030;15.396;2022-08-19T03:10:06;10.43;;;4.00;;
8399;SDS011;4237;47.030;15.396;2022-08-19T03:12:35;11.23;;;3.80;;
8399;SDS011;4237;47.030;15.396;2022-08-19T03:15:05;11.67;;;4.10;;
8399;SDS011;4237;47.030;15.396;2022-08-19T03:17:34;11.87;;;3.83;;
8399;SDS011;4237;47.030;15.396;2022-08-19T03:20:03;10.60;;;3.37;;
8399;SDS011;4237;47.030;15.396;2022-08-19T03:22:32;7.37;;;3.10;;
8399;SDS011;4237;47.030;15.396;2022-08-19T03:25:00;8.23;;;3.70;;
8399;SDS011;4237;47.030;15.396;2022-08-19T03:27:28;8.53;;;3.73;;
8399;SDS011;4237;47.030;15.396;2022-08-19T03:29:57;6.10;;;3.00;;
8399;SDS011;4237;47.030;15.396;2022-08-19T03:32:25;8.50;;;2.73;;
8399;SDS011;4237;47.030;15.396;2022-08-19T03:34:53;8.57;;;3.33;;
8399;SDS011;4237;47.030;15.396;2022-08-19T03:37:21;10.67;;;3.70;;
8399;SDS011;4237;47.030;15.396;2022-08-19T03:39:50;14.07;;;3.80;;
8399;SDS011;4237;47.030;15.396;2022-08-19T03:42:18;9.80;;;3.50;;
8399;SDS011;4237;47.030;15.396;2022-08-19T03:44:46;10.03;;;3.30;;
8399;SDS011;4237;47.030;15.396;2022-08-19T03:47:14;7.67;;;3.10;;
8399;SDS011;4237;47.030;15.396;2022-08-19T03:49:43;9.43;;;3.97;;
8399;SDS011;4237;47.030;15.396;2022-08-19T03:52:13;14.33;;;5.07;;
8399;SDS011;4237;47.030;15.396;2022-08-19T03:54:42;8.20;;;4.70;;
8399;SDS011;4237;47.030;15.396;2022-08-19T03:57:10;10.57;;;4.70;;
8399;SDS011;4237;47.030;15.396;2022-08-19T03:59:38;12.60;;;4.77;;
8399;SDS011;4237;47.030;15.396;2022-08-19T04:02:09;10.03;;;4.57;;
8399;SDS011;4237;47.030;15.396;2022-08-19T04:04:38;12.53;;;4.43;;
8399;SDS011;4237;47.030;15.396;2022-08-19T04:07:07;11.63;;;4.53;;
8399;SDS011;4237;47.030;15.396;2022-08-19T04:09:36;14.83;;;4.07;;
8399;SDS011;4237;47.030;15.396;2022-08-19T04:12:04;11.27;;;3.63;;
8399;SDS011;4237;47.030;15.396;2022-08-19T04:14:33;9.50;;;3.50;;
8399;SDS011;4237;47.030;15.396;2022-08-19T04:17:02;8.70;;;3.47;;
8399;SDS011;4237;47.030;15.396;2022-08-19T04:19:33;9.60;;;3.73;;
8399;SDS011;4237;47.030;15.396;2022-08-19T04:22:02;8.97;;;3.70;;
8399;SDS011;4237;47.030;15.396;2022-08-19T04:24:31;4.80;;;2.27;;
8399;SDS011;4237;47.030;15.396;2022-08-19T04:27:00;6.03;;;1.90;;
8399;SDS011;4237;47.030;15.396;2022-08-19T04:29:28;5.03;;;1.93;;
8399;SDS011;4237;47.030;15.396;2022-08-19T04:31:57;2.67;;;1.67;;
8399;SDS011;4237;47.030;15.396;2022-08-19T04:34:28;5.23;;;1.50;;
8399;SDS011;4237;47.030;15.396;2022-08-19T04:36:57;3.50;;;1.27;;
8399;SDS011;4237;47.030;15.396;2022-08-19T04:39:27;3.83;;;1.53;;
8399;SDS011;4237;47.030;15.396;2022-08-19T04:41:57;4.60;;;1.33;;
8399;SDS011;4237;47.030;15.396;2022-08-19T04:44:43;5.97;;;1.20;;
8399;SDS011;4237;47.030;15.396;2022-08-19T04:47:11;2.93;;;1.20;;
8399;SDS011;4237;47.030;15.396;2022-08-19T04:49:39;5.67;;;1.60;;
8399;SDS011;4237;47.030;15.396;2022-08-19T04:52:08;3.93;;;1.60;;
8399;SDS011;4237;47.030;15.396;2022-08-19T04:54:36;6.23;;;1.73;;
8399;SDS011;4237;47.030;15.396;2022-08-19T04:57:06;2.13;;;1.60;;
8399;SDS011;4237;47.030;15.396;2022-08-19T04:59:37;2.47;;;1.40;;
8399;SDS011;4237;47.030;15.396;2022-08-19T05:02:06;4.60;;;1.33;;
8399;SDS011;4237;47.030;15.396;2022-08-19T05:04:35;4.73;;;1.87;;
8399;SDS011;4237;47.030;15.396;2022-08-19T05:07:06;4.23;;;1.37;;
8399;SDS011;4237;47.030;15.396;2022-08-19T05:09:35;5.77;;;1.87;;
8399;SDS011;4237;47.030;15.396;2022-08-19T05:12:04;6.07;;;1.60;;
8399;SDS011;4237;47.030;15.396;2022-08-19T05:14:33;6.07;;;1.70;;
8399;SDS011;4237;47.030;15.396;2022-08-19T05:17:03;6.97;;;2.07;;
8399;SDS011;4237;47.030;15.396;2022-08-19T05:19:31;6.47;;;2.00;;
8399;SDS011;4237;47.030;15.396;2022-08-19T05:22:17;4.97;;;1.80;;
8399;SDS011;4237;47.030;15.396;2022-08-19T05:25:07;7.33;;;2.13;;
8399;SDS011;4237;47.030;15.396;2022-08-19T05:27:35;3.77;;;1.50;;
8399;SDS011;4237;47.030;15.396;2022-08-19T05:30:03;2.17;;;1.53;;
8399;SDS011;4237;47.030;15.396;2022-08-19T05:32:32;4.90;;;1.80;;
8399;SDS011;4237;47.030;15.396;2022-08-19T05:35:00;4.60;;;1.90;;
8399;SDS011;4237;47.030;15.396;2022-08-19T05:37:29;5.80;;;1.90;;
8399;SDS011;4237;47.030;15.396;2022-08-19T05:39:57;5.53;;;2.20;;
8399;SDS011;4237;47.030;15.396;2022-08-19T05:42:25;3.90;;;2.10;;
8399;SDS011;4237;47.030;15.396;2022-08-19T05:44:53;7.93;;;2.30;;
8399;SDS011;4237;47.030;15.396;2022-08-19T05:47:23;6.07;;;2.30;;
8399;SDS011;4237;47.030;15.396;2022-08-19T05:49:51;4.23;;;2.30;;
8399;SDS011;4237;47.030;15.396;2022-08-19T05:52:19;7.40;;;2.13;;
8399;SDS011;4237;47.030;15.396;2022-08-19T05:54:47;8.43;;;2.70;;
8399;SDS011;4237;47.030;15.396;2022-08-19T05:57:18;8.67;;;2.47;;
8399;SDS011;4237;47.030;15.396;2022-08-19T05:59:46;10.37;;;3.07;;
8399;SDS011;4237;47.030;15.396;2022-08-19T06:02:16;8.60;;;3.00;;
8399;SDS011;4237;47.030;15.396;2022-08-19T06:04:45;10.60;;;3.07;;
8399;SDS011;4237;47.030;15.396;2022-08-19T06:07:13;9.67;;;2.77;;
8399;SDS011;4237;47.030;15.396;2022-08-19T06:09:42;7.53;;;2.83;;
8399;SDS011;4237;47.030;15.396;2022-08-19T06:12:10;4.27;;;2.30;;
8399;SDS011;4237;47.030;15.396;2022-08-19T06:14:38;7.17;;;3.10;;
8399;SDS011;4237;47.030;15.396;2022-08-19T06:17:08;5.23;;;2.77;;
8399;SDS011;4237;47.030;15.396;2022-08-19T06:19:37;8.20;;;2.90;;
8399;SDS011;4237;47.030;15.396;2022-08-19T06:22:07;8.47;;;2.60;;
8399;SDS011;4237;47.030;15.396;2022-08-19T06:24:35;11.43;;;3.33;;
8399;SDS011;4237;47.030;15.396;2022-08-19T06:27:04;9.63;;;2.63;;
8399;SDS011;4237;47.030;15.396;2022-08-19T06:29:33;9.30;;;2.93;;
8399;SDS011;4237;47.030;15.396;2022-08-19T06:32:02;5.87;;;2.53;;
8399;SDS011;4237;47.030;15.396;2022-08-19T06:34:32;7.47;;;2.40;;
8399;SDS011;4237;47.030;15.396;2022-08-19T06:37:01;7.50;;;2.80;;
8399;SDS011;4237;47.030;15.396;2022-08-19T06:39:31;6.50;;;2.57;;
8399;SDS011;4237;47.030;15.396;2022-08-19T06:42:00;4.87;;;2.73;;
8399;SDS011;4237;47.030;15.396;2022-08-19T06:44:30;7.57;;;2.40;;
8399;SDS011;4237;47.030;15.396;2022-08-19T06:47:03;5.00;;;2.30;;
8399;SDS011;4237;47.030;15.396;2022-08-19T06:49:32;4.50;;;2.27;;
8399;SDS011;4237;47.030;15.396;2022-08-19T06:52:00;6.73;;;2.17;;
8399;SDS011;4237;47.030;15.396;2022-08-19T06:54:29;7.00;;;2.50;;
8399;SDS011;4237;47.030;15.396;2022-08-19T06:56:58;5.40;;;2.20;;
8399;SDS011;4237;47.030;15.396;2022-08-19T06:59:28;7.10;;;2.10;;
8399;SDS011;4237;47.030;15.396;2022-08-19T07:01:59;3.93;;;1.57;;
8399;SDS011;4237;47.030;15.396;2022-08-19T07:04:29;3.97;;;1.77;;
8399;SDS011;4237;47.030;15.396;2022-08-19T07:07:03;7.70;;;1.90;;
8399;SDS011;4237;47.030;15.396;2022-08-19T07:09:30;3.63;;;1.73;;
8399;SDS011;4237;47.030;15.396;2022-08-19T07:11:58;9.73;;;2.13;;
8399;SDS011;4237;47.030;15.396;2022-08-19T07:14:28;4.15;;;2.10;;
8399;SDS011;4237;47.030;15.396;2022-08-19T07:16:56;5.03;;;2.33;;
8399;SDS011;4237;47.030;15.396;2022-08-19T07:19:25;2.60;;;1.67;;
8399;SDS011;4237;47.030;15.396;2022-08-19T07:21:54;4.80;;;2.00;;
8399;SDS011;4237;47.030;15.396;2022-08-19T07:24:24;2.63;;;1.23;;
8399;SDS011;4237;47.030;15.396;2022-08-19T07:26:54;2.53;;;1.20;;
8399;SDS011;4237;47.030;15.396;2022-08-19T07:29:24;8.63;;;1.77;;
8399;SDS011;4237;47.030;15.396;2022-08-19T07:31:52;4.77;;;1.73;;
8399;SDS011;4237;47.030;15.396;2022-08-19T07:34:23;3.07;;;1.17;;
8399;SDS011;4237;47.030;15.396;2022-08-19T07:36:51;3.17;;;1.37;;
8399;SDS011;4237;47.030;15.396;2022-08-19T07:39:28;4.03;;;1.30;;
8399;SDS011;4237;47.030;15.396;2022-08-19T07:41:57;4.00;;;1.10;;
8399;SDS011;4237;47.030;15.396;2022-08-19T07:44:26;3.43;;;1.00;;
8399;SDS011;4237;47.030;15.396;2022-08-19T07:46:55;1.47;;;1.10;;
8399;SDS011;4237;47.030;15.396;2022-08-19T07:49:24;3.07;;;1.30;;
8399;SDS011;4237;47.030;15.396;2022-08-19T07:51:54;3.43;;;1.13;;
8399;SDS011;4237;47.030;15.396;2022-08-19T07:54:23;3.27;;;1.00;;
8399;SDS011;4237;47.030;15.396;2022-08-19T07:56:52;4.93;;;1.57;;
8399;SDS011;4237;47.030;15.396;2022-08-19T07:59:21;1.97;;;1.10;;
8399;SDS011;4237;47.030;15.396;2022-08-19T08:01:49;4.30;;;1.40;;
8399;SDS011;4237;47.030;15.396;2022-08-19T08:04:18;3.20;;;1.17;;
8399;SDS011;4237;47.030;15.396;2022-08-19T08:07:05;3.23;;;1.30;;
8399;SDS011;4237;47.030;15.396;2022-08-19T08:09:52;2.30;;;1.30;;
8399;SDS011;4237;47.030;15.396;2022-08-19T08:12:22;3.00;;;1.13;;
8399;SDS011;4237;47.030;15.396;2022-08-19T08:14:53;4.27;;;1.43;;
8399;SDS011;4237;47.030;15.396;2022-08-19T08:17:23;1.77;;;1.20;;
8399;SDS011;4237;47.030;15.396;2022-08-19T08:19:52;4.40;;;1.63;;
8399;SDS011;4237;47.030;15.396;2022-08-19T08:22:20;2.57;;;1.30;;
8399;SDS011;4237;47.030;15.396;2022-08-19T08:25:09;4.70;;;1.20;;
8399;SDS011;4237;47.030;15.396;2022-08-19T08:27:38;2.07;;;1.20;;
8399;SDS011;4237;47.030;15.396;2022-08-19T08:30:07;2.13;;;1.20;;
8399;SDS011;4237;47.030;15.396;2022-08-19T08:32:37;4.73;;;1.53;;
8399;SDS011;4237;47.030;15.396;2022-08-19T08:35:06;3.80;;;0.90;;
8399;SDS011;4237;47.030;15.396;2022-08-19T08:37:35;8.03;;;1.77;;
8399;SDS011;4237;47.030;15.396;2022-08-19T08:40:05;4.80;;;1.40;;
8399;SDS011;4237;47.030;15.396;2022-08-19T08:42:34;1.53;;;1.03;;
8399;SDS011;4237;47.030;15.396;2022-08-19T08:45:10;3.33;;;1.03;;
8399;SDS011;4237;47.030;15.396;2022-08-19T08:47:38;2.00;;;1.03;;
8399;SDS011;4237;47.030;15.396;2022-08-19T08:50:09;4.03;;;1.03;;
8399;SDS011;4237;47.030;15.396;2022-08-19T08:52:41;1.13;;;0.83;;
8399;SDS011;4237;47.030;15.396;2022-08-19T08:55:10;4.07;;;1.40;;
8399;SDS011;4237;47.030;15.396;2022-08-19T09:00:19;1.50;;;1.00;;
8399;SDS011;4237;47.030;15.396;2022-08-19T09:02:48;3.10;;;1.43;;
8399;SDS011;4237;47.030;15.396;2022-08-19T09:05:16;4.73;;;1.50;;
8399;SDS011;4237;47.030;15.396;2022-08-19T09:10:23;0.90;;;0.90;;
8399;SDS011;4237;47.030;15.396;2022-08-19T09:15:17;2.07;;;1.00;;
8399;SDS011;4237;47.030;15.396;2022-08-19T09:17:46;4.87;;;1.40;;
8399;SDS011;4237;47.030;15.396;2022-08-19T09:20:21;1.20;;;0.93;;
8399;SDS011;4237;47.030;15.396;2022-08-19T09:22:50;2.60;;;1.40;;
8399;SDS011;4237;47.030;15.396;2022-08-19T09:25:19;3.90;;;1.40;;
8399;SDS011;4237;47.030;15.396;2022-08-19T09:27:50;4.50;;;1.20;;
8399;SDS011;4237;47.030;15.396;2022-08-19T09:30:22;1.27;;;1.10;;
8399;SDS011;4237;47.030;15.396;2022-08-19T09:32:52;3.10;;;1.17;;
8399;SDS011;4237;47.030;15.396;2022-08-19T09:35:21;2.67;;;1.10;;
8399;SDS011;4237;47.030;15.396;2022-08-19T09:37:50;2.50;;;1.47;;
8399;SDS011;4237;47.030;15.396;2022-08-19T09:40:18;2.63;;;1.13;;
8399;SDS011;4237;47.030;15.396;2022-08-19T09:42:47;2.27;;;1.10;;
8399;SDS011;4237;47.030;15.396;2022-08-19T09:45:16;1.97;;;1.27;;
8399;SDS011;4237;47.030;15.396;2022-08-19T09:47:44;2.43;;;1.37;;
8399;SDS011;4237;47.030;15.396;2022-08-19T09:50:12;4.00;;;1.70;;
8399;SDS011;4237;47.030;15.396;2022-08-19T09:52:41;2.90;;;1.40;;
8399;SDS011;4237;47.030;15.396;2022-08-19T09:55:10;4.87;;;1.53;;
8399;SDS011;4237;47.030;15.396;2022-08-19T09:57:38;4.37;;;2.10;;
8399;SDS011;4237;47.030;15.396;2022-08-19T10:00:08;2.60;;;1.33;;
8399;SDS011;4237;47.030;15.396;2022-08-19T10:02:37;4.30;;;1.13;;
8399;SDS011;4237;47.030;15.396;2022-08-19T10:05:05;3.30;;;1.70;;
8399;SDS011;4237;47.030;15.396;2022-08-19T10:07:51;3.87;;;1.47;;
8399;SDS011;4237;47.030;15.396;2022-08-19T10:10:19;3.57;;;1.70;;
8399;SDS011;4237;47.030;15.396;2022-08-19T10:12:48;3.63;;;1.90;;
8399;SDS011;4237;47.030;15.396;2022-08-19T10:15:16;3.77;;;1.83;;
8399;SDS011;4237;47.030;15.396;2022-08-19T10:17:46;6.63;;;1.87;;
8399;SDS011;4237;47.030;15.396;2022-08-19T10:20:14;4.73;;;1.90;;
8399;SDS011;4237;47.030;15.396;2022-08-19T10:22:43;2.60;;;1.50;;
8399;SDS011;4237;47.030;15.396;2022-08-19T10:25:11;3.07;;;1.80;;
8399;SDS011;4237;47.030;15.396;2022-08-19T10:27:41;5.70;;;1.93;;
8399;SDS011;4237;47.030;15.396;2022-08-19T10:30:10;3.80;;;1.87;;
8399;SDS011;4237;47.030;15.396;2022-08-19T10:32:38;5.40;;;2.27;;
8399;SDS011;4237;47.030;15.396;2022-08-19T10:35:07;5.47;;;2.23;;
8399;SDS011;4237;47.030;15.396;2022-08-19T10:37:35;5.03;;;1.77;;
8399;SDS011;4237;47.030;15.396;2022-08-19T10:40:05;7.23;;;2.33;;
8399;SDS011;4237;47.030;15.396;2022-08-19T10:42:34;5.97;;;2.30;;
8399;SDS011;4237;47.030;15.396;2022-08-19T10:45:03;3.63;;;2.00;;
8399;SDS011;4237;47.030;15.396;2022-08-19T10:47:33;7.00;;;2.17;;
8399;SDS011;4237;47.030;15.396;2022-08-19T10:50:02;6.57;;;1.70;;
8399;SDS011;4237;47.030;15.396;2022-08-19T10:52:49;4.12;;;2.00;;
8399;SDS011;4237;47.030;15.396;2022-08-19T10:55:18;6.53;;;2.13;;
8399;SDS011;4237;47.030;15.396;2022-08-19T10:58:09;6.00;;;2.40;;
8399;SDS011;4237;47.030;15.396;2022-08-19T11:00:35;9.85;;;2.27;;
8399;SDS011;4237;47.030;15.396;2022-08-19T11:03:03;8.28;;;2.87;;
8399;SDS011;4237;47.030;15.396;2022-08-19T11:05:32;9.38;;;2.55;;
8399;SDS011;4237;47.030;15.396;2022-08-19T11:08:01;7.95;;;2.50;;
8399;SDS011;4237;47.030;15.396;2022-08-19T11:10:29;7.83;;;2.37;;
8399;SDS011;4237;47.030;15.396;2022-08-19T11:12:57;9.40;;;3.20;;
8399;SDS011;4237;47.030;15.396;2022-08-19T11:15:27;5.60;;;2.37;;
8399;SDS011;4237;47.030;15.396;2022-08-19T11:17:57;5.83;;;2.58;;
8399;SDS011;4237;47.030;15.396;2022-08-19T11:20:25;6.12;;;2.50;;
8399;SDS011;4237;47.030;15.396;2022-08-19T11:22:53;6.70;;;2.90;;
8399;SDS011;4237;47.030;15.396;2022-08-19T11:25:21;6.43;;;3.10;;
8399;SDS011;4237;47.030;15.396;2022-08-19T11:27:50;6.47;;;3.10;;
8399;SDS011;4237;47.030;15.396;2022-08-19T11:30:19;9.33;;;3.33;;
8399;SDS011;4237;47.030;15.396;2022-08-19T11:32:47;7.50;;;2.80;;
8399;SDS011;4237;47.030;15.396;2022-08-19T11:35:16;8.45;;;2.92;;
8399;SDS011;4237;47.030;15.396;2022-08-19T11:37:45;8.57;;;3.17;;
8399;SDS011;4237;47.030;15.396;2022-08-19T11:40:14;6.93;;;3.20;;
8399;SDS011;4237;47.030;15.396;2022-08-19T11:42:42;7.55;;;2.90;;
8399;SDS011;4237;47.030;15.396;2022-08-19T11:45:24;5.65;;;2.80;;
8399;SDS011;4237;47.030;15.396;2022-08-19T11:47:52;6.80;;;2.73;;
8399;SDS011;4237;47.030;15.396;2022-08-19T11:50:21;7.92;;;3.33;;
8399;SDS011;4237;47.030;15.396;2022-08-19T11:52:53;11.03;;;3.15;;
8399;SDS011;4237;47.030;15.396;2022-08-19T11:55:21;6.42;;;2.60;;
8399;SDS011;4237;47.030;15.396;2022-08-19T11:57:49;7.42;;;3.12;;
8399;SDS011;4237;47.030;15.396;2022-08-19T12:00:18;6.40;;;2.72;;
8399;SDS011;4237;47.030;15.396;2022-08-19T12:02:46;4.78;;;2.37;;
8399;SDS011;4237;47.030;15.396;2022-08-19T12:05:14;9.77;;;3.00;;
8399;SDS011;4237;47.030;15.396;2022-08-19T12:07:42;4.55;;;2.60;;
8399;SDS011;4237;47.030;15.396;2022-08-19T12:10:11;6.37;;;2.22;;
8399;SDS011;4237;47.030;15.396;2022-08-19T12:12:39;8.25;;;2.50;;
8399;SDS011;4237;47.030;15.396;2022-08-19T12:15:09;7.62;;;2.27;;
8399;SDS011;4237;47.030;15.396;2022-08-19T12:17:39;5.60;;;2.30;;
8399;SDS011;4237;47.030;15.396;2022-08-19T12:20:09;5.45;;;2.60;;
8399;SDS011;4237;47.030;15.396;2022-08-19T12:22:38;7.10;;;2.95;;
8399;SDS011;4237;47.030;15.396;2022-08-19T12:25:09;8.73;;;2.50;;
8399;SDS011;4237;47.030;15.396;2022-08-19T12:27:38;7.78;;;2.77;;
8399;SDS011;4237;47.030;15.396;2022-08-19T12:30:07;5.92;;;2.10;;
8399;SDS011;4237;47.030;15.396;2022-08-19T12:32:37;6.67;;;2.00;;
8399;SDS011;4237;47.030;15.396;2022-08-19T12:35:06;6.27;;;2.03;;
8399;SDS011;4237;47.030;15.396;2022-08-19T12:37:36;7.55;;;1.90;;
8399;SDS011;4237;47.030;15.396;2022-08-19T12:40:05;7.95;;;2.40;;
8399;SDS011;4237;47.030;15.396;2022-08-19T12:42:33;9.68;;;2.70;;
8399;SDS011;4237;47.030;15.396;2022-08-19T12:45:02;6.37;;;2.27;;
8399;SDS011;4237;47.030;15.396;2022-08-19T12:47:30;11.20;;;2.33;;
8399;SDS011;4237;47.030;15.396;2022-08-19T12:49:58;8.10;;;2.33;;
8399;SDS011;4237;47.030;15.396;2022-08-19T12:52:26;5.90;;;1.97;;
8399;SDS011;4237;47.030;15.396;2022-08-19T12:54:55;5.08;;;2.22;;
8399;SDS011;4237;47.030;15.396;2022-08-19T12:57:25;9.80;;;2.42;;
8399;SDS011;4237;47.030;15.396;2022-08-19T12:59:54;10.60;;;2.60;;
8399;SDS011;4237;47.030;15.396;2022-08-19T13:02:23;7.10;;;1.98;;
8399;SDS011;4237;47.030;15.396;2022-08-19T13:04:51;9.80;;;2.13;;
8399;SDS011;4237;47.030;15.396;2022-08-19T13:07:19;7.50;;;2.40;;
8399;SDS011;4237;47.030;15.396;2022-08-19T13:09:47;6.97;;;2.50;;
8399;SDS011;4237;47.030;15.396;2022-08-19T13:12:15;10.30;;;2.25;;
8399;SDS011;4237;47.030;15.396;2022-08-19T13:14:44;6.65;;;2.17;;
8399;SDS011;4237;47.030;15.396;2022-08-19T13:17:14;6.40;;;2.40;;
8399;SDS011;4237;47.030;15.396;2022-08-19T13:19:42;4.80;;;2.00;;
8399;SDS011;4237;47.030;15.396;2022-08-19T13:22:10;5.72;;;2.30;;
8399;SDS011;4237;47.030;15.396;2022-08-19T13:24:39;6.70;;;2.20;;
8399;SDS011;4237;47.030;15.396;2022-08-19T13:27:07;5.37;;;2.30;;
8399;SDS011;4237;47.030;15.396;2022-08-19T13:29:35;7.90;;;2.25;;
8399;SDS011;4237;47.030;15.396;2022-08-19T13:32:21;8.48;;;2.37;;
8399;SDS011;4237;47.030;15.396;2022-08-19T13:35:08;7.70;;;2.27;;
8399;SDS011;4237;47.030;15.396;2022-08-19T13:37:36;6.58;;;2.37;;
8399;SDS011;4237;47.030;15.396;2022-08-19T13:40:12;6.90;;;2.20;;
8399;SDS011;4237;47.030;15.396;2022-08-19T13:42:43;6.60;;;2.27;;
8399;SDS011;4237;47.030;15.396;2022-08-19T13:45:13;7.08;;;2.00;;
8399;SDS011;4237;47.030;15.396;2022-08-19T13:47:42;6.37;;;2.50;;
8399;SDS011;4237;47.030;15.396;2022-08-19T13:50:15;8.03;;;2.17;;
8399;SDS011;4237;47.030;15.396;2022-08-19T13:52:43;7.50;;;2.62;;
8399;SDS011;4237;47.030;15.396;2022-08-19T13:55:12;8.88;;;2.33;;
8399;SDS011;4237;47.030;15.396;2022-08-19T13:57:42;6.42;;;2.47;;
8399;SDS011;4237;47.030;15.396;2022-08-19T14:00:12;8.25;;;2.40;;
8399;SDS011;4237;47.030;15.396;2022-08-19T14:02:41;8.50;;;2.65;;
8399;SDS011;4237;47.030;15.396;2022-08-19T14:05:10;12.00;;;2.52;;
8399;SDS011;4237;47.030;15.396;2022-08-19T14:07:39;8.00;;;3.00;;
8399;SDS011;4237;47.030;15.396;2022-08-19T14:10:09;7.62;;;2.27;;
8399;SDS011;4237;47.030;15.396;2022-08-19T14:12:38;9.63;;;2.40;;
8399;SDS011;4237;47.030;15.396;2022-08-19T14:15:07;6.70;;;2.70;;
8399;SDS011;4237;47.030;15.396;2022-08-19T14:17:42;7.80;;;2.83;;
8399;SDS011;4237;47.030;15.396;2022-08-19T14:20:11;9.75;;;2.50;;
8399;SDS011;4237;47.030;15.396;2022-08-19T14:22:40;8.15;;;2.52;;
8399;SDS011;4237;47.030;15.396;2022-08-19T14:25:10;4.00;;;2.15;;
8399;SDS011;4237;47.030;15.396;2022-08-19T14:27:39;8.40;;;2.33;;
8399;SDS011;4237;47.030;15.396;2022-08-19T14:30:09;7.92;;;2.70;;
8399;SDS011;4237;47.030;15.396;2022-08-19T14:32:38;7.65;;;2.70;;
8399;SDS011;4237;47.030;15.396;2022-08-19T14:35:06;6.75;;;2.42;;
8399;SDS011;4237;47.030;15.396;2022-08-19T14:37:35;8.33;;;2.87;;
8399;SDS011;4237;47.030;15.396;2022-08-19T14:40:04;13.88;;;2.87;;
8399;SDS011;4237;47.030;15.396;2022-08-19T14:42:33;9.78;;;2.60;;
8399;SDS011;4237;47.030;15.396;2022-08-19T14:45:01;9.08;;;2.67;;
8399;SDS011;4237;47.030;15.396;2022-08-19T14:47:31;6.80;;;2.70;;
8399;SDS011;4237;47.030;15.396;2022-08-19T14:50:00;7.90;;;2.40;;
8399;SDS011;4237;47.030;15.396;2022-08-19T14:52:28;9.65;;;2.98;;
8399;SDS011;4237;47.030;15.396;2022-08-19T14:54:56;5.67;;;2.30;;
8399;SDS011;4237;47.030;15.396;2022-08-19T14:57:24;11.48;;;2.75;;
8399;SDS011;4237;47.030;15.396;2022-08-19T14:59:52;13.32;;;3.17;;
8399;SDS011;4237;47.030;15.396;2022-08-19T15:02:21;11.95;;;3.05;;
8399;SDS011;4237;47.030;15.396;2022-08-19T15:04:49;9.53;;;2.80;;
8399;SDS011;4237;47.030;15.396;2022-08-19T15:07:17;11.65;;;3.08;;
8399;SDS011;4237;47.030;15.396;2022-08-19T15:09:45;8.60;;;2.70;;
8399;SDS011;4237;47.030;15.396;2022-08-19T15:12:15;4.60;;;2.33;;
8399;SDS011;4237;47.030;15.396;2022-08-19T15:14:44;7.62;;;2.70;;
8399;SDS011;4237;47.030;15.396;2022-08-19T15:17:14;7.17;;;2.52;;
8399;SDS011;4237;47.030;15.396;2022-08-19T15:19:42;11.00;;;3.10;;
8399;SDS011;4237;47.030;15.396;2022-08-19T15:22:11;9.70;;;2.83;;
8399;SDS011;4237;47.030;15.396;2022-08-19T15:24:39;7.78;;;2.52;;
8399;SDS011;4237;47.030;15.396;2022-08-19T15:27:09;8.53;;;2.50;;
8399;SDS011;4237;47.030;15.396;2022-08-19T15:29:37;9.63;;;2.67;;
8399;SDS011;4237;47.030;15.396;2022-08-19T15:32:06;9.48;;;3.00;;
8399;SDS011;4237;47.030;15.396;2022-08-19T15:34:34;6.85;;;2.80;;
8399;SDS011;4237;47.030;15.396;2022-08-19T15:37:03;7.30;;;2.85;;
8399;SDS011;4237;47.030;15.396;2022-08-19T15:39:32;10.45;;;2.98;;